sensor_id;sensor_type;location;lat;lon;timestamp;pressure;altitude;pressure_sealevel;temperature;humidity
53932;BME280;39844;52.496;13.482;2023-04-02T00:00:20;101013.81;;;3.89;85.30
53932;BME280;39844;52.496;13.482;2023-04-02T00:07:52;101024.19;;;3.89;85.59
53932;BME280;39844;52.496;13.482;2023-04-02T00:10:34;101027.63;;;3.88;85.91
53932;BME280;39844;52.496;13.482;2023-04-02T00:15:33;101041.34;;;3.83;85.53
53932;BME280;39844;52.496;13.482;2023-04-02T00:17:59;101039.50;;;3.79;85.08
53932;BME280;39844;52.496;13.482;2023-04-02T00:20:26;101038.66;;;3.80;85.45
53932;BME280;39844;52.496;13.482;2023-04-02T00:22:53;101039.56;;;3.81;85.36
53932;BME280;39844;52.496;13.482;2023-04-02T00:25:19;101039.50;;;3.79;85.55
53932;BME280;39844;52.496;13.482;2023-04-02T00:27:44;101046.47;;;3.80;85.33
53932;BME280;39844;52.496;13.482;2023-04-02T00:30:13;101041.19;;;3.77;84.68
53932;BME280;39844;52.496;13.482;2023-04-02T00:32:39;101054.03;;;3.73;83.84
53932;BME280;39844;52.496;13.482;2023-04-02T00:35:25;101058.25;;;3.69;83.58
53932;BME280;39844;52.496;13.482;2023-04-02T00:37:52;101065.00;;;3.64;83.07
53932;BME280;39844;52.496;13.482;2023-04-02T00:40:28;101069.41;;;3.67;84.68
53932;BME280;39844;52.496;13.482;2023-04-02T00:42:57;101070.22;;;3.64;82.70
53932;BME280;39844;52.496;13.482;2023-04-02T00:45:25;101073.66;;;3.63;83.44
53932;BME280;39844;52.496;13.482;2023-04-02T00:47:51;101071.91;;;3.64;83.11
53932;BME280;39844;52.496;13.482;2023-04-02T00:50:21;101084.03;;;3.63;82.86
53932;BME280;39844;52.496;13.482;2023-04-02T00:52:49;101077.88;;;3.60;81.93
53932;BME280;39844;52.496;13.482;2023-04-02T00:55:22;101076.97;;;3.59;81.99
53932;BME280;39844;52.496;13.482;2023-04-02T00:57:49;101086.44;;;3.57;82.24
53932;BME280;39844;52.496;13.482;2023-04-02T01:05:41;101092.56;;;3.59;82.01
53932;BME280;39844;52.496;13.482;2023-04-02T01:08:25;101087.34;;;3.59;81.88
53932;BME280;39844;52.496;13.482;2023-04-02T01:21:51;101118.41;;;3.56;80.57
53932;BME280;39844;52.496;13.482;2023-04-02T01:24:18;101117.59;;;3.57;80.77
53932;BME280;39844;52.496;13.482;2023-04-02T01:26:58;101121.94;;;3.58;80.30
53932;BME280;39844;52.496;13.482;2023-04-02T01:32:25;101138.25;;;3.54;79.71
53932;BME280;39844;52.496;13.482;2023-04-02T01:34:52;101141.75;;;3.56;79.53
53932;BME280;39844;52.496;13.482;2023-04-02T01:43:22;101145.94;;;3.51;78.60
53932;BME280;39844;52.496;13.482;2023-04-02T01:45:50;101152.84;;;3.51;79.05
53932;BME280;39844;52.496;13.482;2023-04-02T01:48:18;101152.78;;;3.49;79.33
53932;BME280;39844;52.496;13.482;2023-04-02T01:50:50;101162.34;;;3.50;79.10
53932;BME280;39844;52.496;13.482;2023-04-02T01:53:17;101166.63;;;3.48;78.67
53932;BME280;39844;52.496;13.482;2023-04-02T01:55:50;101171.81;;;3.48;79.66
53932;BME280;39844;52.496;13.482;2023-04-02T01:58:20;101180.41;;;3.47;79.17
53932;BME280;39844;52.496;13.482;2023-04-02T02:03:20;101189.97;;;3.48;78.88
53932;BME280;39844;52.496;13.482;2023-04-02T02:05:45;101189.19;;;3.51;80.35
53932;BME280;39844;52.496;13.482;2023-04-02T02:10:56;101198.69;;;3.50;79.24
53932;BME280;39844;52.496;13.482;2023-04-02T02:13:22;101206.47;;;3.50;79.26
53932;BME280;39844;52.496;13.482;2023-04-02T02:15:47;101215.91;;;3.48;79.23
53932;BME280;39844;52.496;13.482;2023-04-02T02:18:15;101221.09;;;3.48;79.10
53932;BME280;39844;52.496;13.482;2023-04-02T02:20:43;101225.44;;;3.49;79.14
53932;BME280;39844;52.496;13.482;2023-04-02T02:23:10;101216.88;;;3.52;79.93
53932;BME280;39844;52.496;13.482;2023-04-02T02:25:36;101234.16;;;3.51;80.15
53932;BME280;39844;52.496;13.482;2023-04-02T02:28:22;101232.41;;;3.50;79.83
53932;BME280;39844;52.496;13.482;2023-04-02T02:31:20;101233.22;;;3.49;79.58
53932;BME280;39844;52.496;13.482;2023-04-02T02:33:51;101236.69;;;3.48;78.99
53932;BME280;39844;52.496;13.482;2023-04-02T02:36:37;101240.91;;;3.46;78.66
53932;BME280;39844;52.496;13.482;2023-04-02T02:39:23;101248.66;;;3.45;79.27
53932;BME280;39844;52.496;13.482;2023-04-02T02:44:21;101253.88;;;3.46;78.88
53932;BME280;39844;52.496;13.482;2023-04-02T02:46:51;101256.47;;;3.46;79.28
53932;BME280;39844;52.496;13.482;2023-04-02T02:49:23;101257.34;;;3.45;79.30
53932;BME280;39844;52.496;13.482;2023-04-02T02:54:45;101275.59;;;3.48;80.04
53932;BME280;39844;52.496;13.482;2023-04-02T02:57:26;101281.56;;;3.46;79.48
53932;BME280;39844;52.496;13.482;2023-04-02T02:59:54;101290.28;;;3.48;79.90
53932;BME280;39844;52.496;13.482;2023-04-02T03:02:23;101294.47;;;3.44;78.73
53932;BME280;39844;52.496;13.482;2023-04-02T03:04:51;101296.25;;;3.45;78.80
53932;BME280;39844;52.496;13.482;2023-04-02T03:07:18;101297.97;;;3.45;78.38
53932;BME280;39844;52.496;13.482;2023-04-02T03:15:07;101314.41;;;3.45;78.58
53932;BME280;39844;52.496;13.482;2023-04-02T03:17:48;101316.16;;;3.46;78.28
53932;BME280;39844;52.496;13.482;2023-04-02T03:22:54;101330.09;;;3.48;78.26
53932;BME280;39844;52.496;13.482;2023-04-02T03:28:03;101334.44;;;3.49;78.42
53932;BME280;39844;52.496;13.482;2023-04-02T03:30:43;101340.47;;;3.48;77.84
53932;BME280;39844;52.496;13.482;2023-04-02T03:33:34;101345.69;;;3.50;78.34
53932;BME280;39844;52.496;13.482;2023-04-02T03:36:16;101350.94;;;3.51;77.93
53932;BME280;39844;52.496;13.482;2023-04-02T03:38:48;101351.00;;;3.53;78.43
53932;BME280;39844;52.496;13.482;2023-04-02T03:41:27;101356.13;;;3.51;76.86
53932;BME280;39844;52.496;13.482;2023-04-02T03:43:57;101354.25;;;3.47;76.60
53932;BME280;39844;52.496;13.482;2023-04-02T03:46:36;101368.91;;;3.45;76.33
53932;BME280;39844;52.496;13.482;2023-04-02T03:49:17;101372.44;;;3.47;77.27
53932;BME280;39844;52.496;13.482;2023-04-02T03:52:12;101367.25;;;3.47;76.38
53932;BME280;39844;52.496;13.482;2023-04-02T03:54:39;101377.63;;;3.47;76.54
53932;BME280;39844;52.496;13.482;2023-04-02T03:57:10;101379.41;;;3.48;77.25
53932;BME280;39844;52.496;13.482;2023-04-02T04:00:23;101384.59;;;3.48;77.05
53932;BME280;39844;52.496;13.482;2023-04-02T04:02:57;101381.16;;;3.49;77.40
53932;BME280;39844;52.496;13.482;2023-04-02T04:05:33;101388.00;;;3.47;76.82
53932;BME280;39844;52.496;13.482;2023-04-02T04:08:24;101401.78;;;3.46;77.04
53932;BME280;39844;52.496;13.482;2023-04-02T04:10:56;101400.16;;;3.48;77.49
53932;BME280;39844;52.496;13.482;2023-04-02T04:13:38;101406.97;;;3.46;76.71
53932;BME280;39844;52.496;13.482;2023-04-02T04:16:11;101420.91;;;3.48;77.34
53932;BME280;39844;52.496;13.482;2023-04-02T04:19:03;101418.31;;;3.48;76.56
53932;BME280;39844;52.496;13.482;2023-04-02T04:21:31;101420.91;;;3.48;76.93
53932;BME280;39844;52.496;13.482;2023-04-02T04:24:00;101421.78;;;3.49;76.48
53932;BME280;39844;52.496;13.482;2023-04-02T04:26:42;101432.16;;;3.49;76.87
53932;BME280;39844;52.496;13.482;2023-04-02T04:31:44;101443.50;;;3.51;77.38
53932;BME280;39844;52.496;13.482;2023-04-02T04:34:14;101432.22;;;3.50;77.18
53932;BME280;39844;52.496;13.482;2023-04-02T04:36:49;101449.56;;;3.51;77.58
53932;BME280;39844;52.496;13.482;2023-04-02T04:39:39;101448.63;;;3.49;77.21
53932;BME280;39844;52.496;13.482;2023-04-02T04:42:06;101463.41;;;3.52;77.34
53932;BME280;39844;52.496;13.482;2023-04-02T04:44:44;101464.31;;;3.52;77.75
53932;BME280;39844;52.496;13.482;2023-04-02T04:47:19;101468.72;;;3.55;77.55
53932;BME280;39844;52.496;13.482;2023-04-02T04:49:59;101468.72;;;3.55;78.14
53932;BME280;39844;52.496;13.482;2023-04-02T04:52:36;101479.22;;;3.58;78.34
53932;BME280;39844;52.496;13.482;2023-04-02T04:55:25;101483.63;;;3.60;78.20
53932;BME280;39844;52.496;13.482;2023-04-02T04:57:54;101486.28;;;3.62;78.24
53932;BME280;39844;52.496;13.482;2023-04-02T05:03:57;101494.13;;;3.63;78.20
53932;BME280;39844;52.496;13.482;2023-04-02T05:06:36;101507.94;;;3.62;77.85
53932;BME280;39844;52.496;13.482;2023-04-02T05:09:39;101503.75;;;3.66;78.79
53932;BME280;39844;52.496;13.482;2023-04-02T05:12:39;101513.25;;;3.65;78.09
53932;BME280;39844;52.496;13.482;2023-04-02T05:15:26;101514.13;;;3.66;77.36
53932;BME280;39844;52.496;13.482;2023-04-02T05:18:55;101520.19;;;3.66;77.59
53932;BME280;39844;52.496;13.482;2023-04-02T05:21:39;101531.56;;;3.70;78.79
53932;BME280;39844;52.496;13.482;2023-04-02T05:24:32;101539.34;;;3.70;77.31
53932;BME280;39844;52.496;13.482;2023-04-02T05:27:04;101536.00;;;3.72;78.39
53932;BME280;39844;52.496;13.482;2023-04-02T05:29:37;101542.88;;;3.72;76.93
53932;BME280;39844;52.496;13.482;2023-04-02T05:32:12;101542.06;;;3.73;77.00
53932;BME280;39844;52.496;13.482;2023-04-02T05:34:40;101551.69;;;3.75;77.21
53932;BME280;39844;52.496;13.482;2023-04-02T05:37:15;101547.38;;;3.76;76.12
53932;BME280;39844;52.496;13.482;2023-04-02T05:39:44;101555.22;;;3.77;75.88
53932;BME280;39844;52.496;13.482;2023-04-02T05:42:19;101554.44;;;3.80;75.81
53932;BME280;39844;52.496;13.482;2023-04-02T05:45:14;101558.91;;;3.84;75.06
53932;BME280;39844;52.496;13.482;2023-04-02T05:47:45;101573.72;;;3.87;74.18
53932;BME280;39844;52.496;13.482;2023-04-02T05:52:51;101573.06;;;3.92;72.48
53932;BME280;39844;52.496;13.482;2023-04-02T05:55:23;101579.25;;;3.96;71.41
53932;BME280;39844;52.496;13.482;2023-04-02T05:57:55;101581.19;;;4.01;71.64
53932;BME280;39844;52.496;13.482;2023-04-02T06:00:49;101590.81;;;4.04;70.05
53932;BME280;39844;52.496;13.482;2023-04-02T06:03:19;101591.88;;;4.09;70.79
53932;BME280;39844;52.496;13.482;2023-04-02T06:05:47;101591.00;;;4.10;69.75
53932;BME280;39844;52.496;13.482;2023-04-02T06:08:23;101598.94;;;4.13;70.58
53932;BME280;39844;52.496;13.482;2023-04-02T06:13:31;101612.03;;;4.16;71.12
53932;BME280;39844;52.496;13.482;2023-04-02T06:15:56;101618.00;;;4.13;69.68
53932;BME280;39844;52.496;13.482;2023-04-02T06:18:27;101617.00;;;4.10;67.84
53932;BME280;39844;52.496;13.482;2023-04-02T06:20:54;101621.38;;;4.11;68.86
53932;BME280;39844;52.496;13.482;2023-04-02T06:23:34;101625.84;;;4.15;68.83
53932;BME280;39844;52.496;13.482;2023-04-02T06:29:05;101638.44;;;4.28;69.11
53932;BME280;39844;52.496;13.482;2023-04-02T06:34:15;101632.69;;;4.36;69.29
53932;BME280;39844;52.496;13.482;2023-04-02T06:36:41;101646.78;;;4.43;69.47
53932;BME280;39844;52.496;13.482;2023-04-02T06:39:09;101646.00;;;4.45;68.44
53932;BME280;39844;52.496;13.482;2023-04-02T06:41:35;101656.69;;;4.53;69.11
53932;BME280;39844;52.496;13.482;2023-04-02T06:44:10;101662.91;;;4.58;68.43
53932;BME280;39844;52.496;13.482;2023-04-02T06:46:42;101662.09;;;4.59;68.36
53932;BME280;39844;52.496;13.482;2023-04-02T06:51:39;101667.84;;;4.74;70.04
53932;BME280;39844;52.496;13.482;2023-04-02T06:54:05;101667.94;;;4.77;68.44
53932;BME280;39844;52.496;13.482;2023-04-02T06:56:49;101669.81;;;4.81;69.23
53932;BME280;39844;52.496;13.482;2023-04-02T06:59:14;101680.22;;;4.81;66.69
53932;BME280;39844;52.496;13.482;2023-04-02T07:01:45;101676.97;;;4.88;67.39
53932;BME280;39844;52.496;13.482;2023-04-02T07:04:11;101685.75;;;4.90;66.60
53932;BME280;39844;52.496;13.482;2023-04-02T07:06:37;101684.06;;;4.92;66.19
53932;BME280;39844;52.496;13.482;2023-04-02T07:09:03;101703.09;;;4.91;64.87
53932;BME280;39844;52.496;13.482;2023-04-02T07:11:29;101692.78;;;4.93;64.58
53932;BME280;39844;52.496;13.482;2023-04-02T07:13:54;101693.81;;;4.98;65.10
53932;BME280;39844;52.496;13.482;2023-04-02T07:16:21;101691.28;;;5.01;64.47
53932;BME280;39844;52.496;13.482;2023-04-02T07:18:48;101686.03;;;4.99;63.42
53932;BME280;39844;52.496;13.482;2023-04-02T07:21:13;101694.78;;;5.01;63.06
53932;BME280;39844;52.496;13.482;2023-04-02T07:23:39;101692.31;;;5.06;62.24
53932;BME280;39844;52.496;13.482;2023-04-02T07:26:05;101698.75;;;5.16;63.15
53932;BME280;39844;52.496;13.482;2023-04-02T07:28:31;101693.94;;;5.28;62.12
53932;BME280;39844;52.496;13.482;2023-04-02T07:30:56;101703.78;;;5.36;62.98
53932;BME280;39844;52.496;13.482;2023-04-02T07:33:25;101700.56;;;5.45;63.13
53932;BME280;39844;52.496;13.482;2023-04-02T07:35:52;101709.56;;;5.54;62.54
53932;BME280;39844;52.496;13.482;2023-04-02T07:38:17;101715.97;;;5.64;61.27
53932;BME280;39844;52.496;13.482;2023-04-02T07:40:43;101717.72;;;5.65;60.54
53932;BME280;39844;52.496;13.482;2023-04-02T07:43:08;101710.75;;;5.64;60.55
53932;BME280;39844;52.496;13.482;2023-04-02T07:45:36;101714.28;;;5.66;61.66
53932;BME280;39844;52.496;13.482;2023-04-02T07:48:10;101724.88;;;5.72;61.15
53932;BME280;39844;52.496;13.482;2023-04-02T07:50:37;101725.72;;;5.71;60.46
53932;BME280;39844;52.496;13.482;2023-04-02T07:53:03;101732.75;;;5.73;61.05
53932;BME280;39844;52.496;13.482;2023-04-02T07:55:28;101742.41;;;5.76;60.65
53932;BME280;39844;52.496;13.482;2023-04-02T07:57:56;101738.78;;;5.72;61.10
53932;BME280;39844;52.496;13.482;2023-04-02T08:00:22;101750.09;;;5.73;61.33
53932;BME280;39844;52.496;13.482;2023-04-02T08:02:49;101757.19;;;5.77;61.60
53932;BME280;39844;52.496;13.482;2023-04-02T08:05:16;101760.66;;;5.78;61.50
53932;BME280;39844;52.496;13.482;2023-04-02T08:07:41;101774.69;;;5.81;62.31
53932;BME280;39844;52.496;13.482;2023-04-02T08:10:08;101780.72;;;5.80;61.02
53932;BME280;39844;52.496;13.482;2023-04-02T08:12:35;101771.75;;;5.72;61.55
53932;BME280;39844;52.496;13.482;2023-04-02T08:15:00;101774.19;;;5.66;61.38
53932;BME280;39844;52.496;13.482;2023-04-02T08:17:26;101775.00;;;5.65;61.34
53932;BME280;39844;52.496;13.482;2023-04-02T08:19:51;101784.38;;;5.60;60.77
53932;BME280;39844;52.496;13.482;2023-04-02T08:22:16;101787.84;;;5.59;61.24
53932;BME280;39844;52.496;13.482;2023-04-02T08:24:42;101790.63;;;5.65;61.72
53932;BME280;39844;52.496;13.482;2023-04-02T08:27:09;101794.16;;;5.67;60.87
53932;BME280;39844;52.496;13.482;2023-04-02T08:29:37;101801.56;;;5.80;61.22
53932;BME280;39844;52.496;13.482;2023-04-02T08:32:03;101801.41;;;6.01;62.51
53932;BME280;39844;52.496;13.482;2023-04-02T08:34:28;101798.84;;;6.02;59.65
53932;BME280;39844;52.496;13.482;2023-04-02T08:36:57;101795.59;;;6.09;60.33
53932;BME280;39844;52.496;13.482;2023-04-02T08:39:23;101794.91;;;6.15;59.23
53932;BME280;39844;52.496;13.482;2023-04-02T08:46:58;101826.56;;;6.00;60.29
53932;BME280;39844;52.496;13.482;2023-04-02T08:50:01;101818.72;;;5.99;59.86
53932;BME280;39844;52.496;13.482;2023-04-02T08:52:30;101830.81;;;5.97;59.31
53932;BME280;39844;52.496;13.482;2023-04-02T08:54:56;101831.72;;;5.97;59.83
53932;BME280;39844;52.496;13.482;2023-04-02T08:59:58;101842.03;;;5.94;59.52
53932;BME280;39844;52.496;13.482;2023-04-02T09:02:30;101838.63;;;5.97;60.75
53932;BME280;39844;52.496;13.482;2023-04-02T09:05:02;101865.72;;;6.02;59.83
53932;BME280;39844;52.496;13.482;2023-04-02T09:07:29;101850.63;;;5.92;59.49
53932;BME280;39844;52.496;13.482;2023-04-02T09:09:55;101862.47;;;5.84;59.60
53932;BME280;39844;52.496;13.482;2023-04-02T09:12:26;101868.25;;;5.75;58.62
53932;BME280;39844;52.496;13.482;2023-04-02T09:15:00;101881.25;;;5.73;59.25
53932;BME280;39844;52.496;13.482;2023-04-02T09:17:29;101879.06;;;5.86;59.55
53932;BME280;39844;52.496;13.482;2023-04-02T09:20:13;101865.63;;;5.99;58.81
53932;BME280;39844;52.496;13.482;2023-04-02T09:22:39;101870.84;;;5.99;58.60
53932;BME280;39844;52.496;13.482;2023-04-02T09:25:12;101876.81;;;5.96;57.55
53932;BME280;39844;52.496;13.482;2023-04-02T09:27:38;101885.41;;;5.92;57.17
53932;BME280;39844;52.496;13.482;2023-04-02T09:32:53;101881.59;;;5.84;57.49
53932;BME280;39844;52.496;13.482;2023-04-02T09:35:24;101888.31;;;5.78;57.40
53932;BME280;39844;52.496;13.482;2023-04-02T09:40:48;101896.34;;;5.84;57.21
53932;BME280;39844;52.496;13.482;2023-04-02T09:43:20;101904.34;;;5.88;57.64
53932;BME280;39844;52.496;13.482;2023-04-02T09:48:27;101915.88;;;5.95;57.03
53932;BME280;39844;52.496;13.482;2023-04-02T09:51:05;101917.75;;;5.99;58.33
53932;BME280;39844;52.496;13.482;2023-04-02T09:53:51;101915.44;;;6.08;57.47
53932;BME280;39844;52.496;13.482;2023-04-02T09:56:32;101912.41;;;6.21;57.53
53932;BME280;39844;52.496;13.482;2023-04-02T09:59:13;101916.09;;;6.27;56.12
53932;BME280;39844;52.496;13.482;2023-04-02T10:06:57;101926.31;;;6.75;57.33
53932;BME280;39844;52.496;13.482;2023-04-02T10:09:31;101937.31;;;6.93;56.66
53932;BME280;39844;52.496;13.482;2023-04-02T10:11:59;101934.09;;;7.02;55.50
53932;BME280;39844;52.496;13.482;2023-04-02T10:14:45;101940.91;;;6.96;54.58
53932;BME280;39844;52.496;13.482;2023-04-02T10:17:26;101935.34;;;6.86;54.19
53932;BME280;39844;52.496;13.482;2023-04-02T10:20:05;101942.53;;;6.93;55.26
53932;BME280;39844;52.496;13.482;2023-04-02T10:22:31;101946.81;;;6.91;54.15
53932;BME280;39844;52.496;13.482;2023-04-02T10:24:57;101952.13;;;6.94;54.75
53932;BME280;39844;52.496;13.482;2023-04-02T10:30:27;101962.97;;;7.08;54.82
53932;BME280;39844;52.496;13.482;2023-04-02T10:33:00;101951.84;;;7.13;55.55
53932;BME280;39844;52.496;13.482;2023-04-02T10:35:56;101959.09;;;7.23;55.16
53932;BME280;39844;52.496;13.482;2023-04-02T10:43:42;101965.66;;;7.39;55.34
53932;BME280;39844;52.496;13.482;2023-04-02T10:46:22;101969.19;;;7.41;53.77
53932;BME280;39844;52.496;13.482;2023-04-02T10:49:15;101969.28;;;7.44;53.76
53932;BME280;39844;52.496;13.482;2023-04-02T10:54:36;101980.06;;;7.56;55.01
53932;BME280;39844;52.496;13.482;2023-04-02T10:59:52;101989.38;;;7.46;53.85
53932;BME280;39844;52.496;13.482;2023-04-02T11:05:44;101989.97;;;7.36;54.32
53932;BME280;39844;52.496;13.482;2023-04-02T11:15:54;102004.50;;;7.28;53.84
53932;BME280;39844;52.496;13.482;2023-04-02T11:18:31;102018.31;;;7.24;53.64
53932;BME280;39844;52.496;13.482;2023-04-02T11:23:35;102027.00;;;7.23;53.67
53932;BME280;39844;52.496;13.482;2023-04-02T11:26:40;102032.00;;;7.17;54.55
53932;BME280;39844;52.496;13.482;2023-04-02T11:29:19;102033.00;;;7.21;55.16
53932;BME280;39844;52.496;13.482;2023-04-02T11:31:46;102037.34;;;7.20;54.44
53932;BME280;39844;52.496;13.482;2023-04-02T11:37:09;102043.56;;;7.24;54.60
53932;BME280;39844;52.496;13.482;2023-04-02T11:39:49;102045.28;;;7.23;54.90
53932;BME280;39844;52.496;13.482;2023-04-02T11:44:43;102044.47;;;7.26;54.47
53932;BME280;39844;52.496;13.482;2023-04-02T11:54:58;102039.13;;;7.81;53.82
53932;BME280;39844;52.496;13.482;2023-04-02T12:02:58;102047.44;;;8.27;52.08
53932;BME280;39844;52.496;13.482;2023-04-02T12:05:41;102051.25;;;8.40;51.63
53932;BME280;39844;52.496;13.482;2023-04-02T12:09:22;102047.50;;;8.63;51.39
53932;BME280;39844;52.496;13.482;2023-04-02T12:11:15;102046.22;;;8.81;50.75
53932;BME280;39844;52.496;13.482;2023-04-02T12:16:12;102057.28;;;8.70;51.44
53932;BME280;39844;52.496;13.482;2023-04-02T12:18:46;102071.03;;;8.61;50.61
53932;BME280;39844;52.496;13.482;2023-04-02T12:21:16;102071.66;;;8.51;51.22
53932;BME280;39844;52.496;13.482;2023-04-02T12:23:45;102071.28;;;8.39;51.62
53932;BME280;39844;52.496;13.482;2023-04-02T12:31:47;102072.19;;;8.40;51.78
53932;BME280;39844;52.496;13.482;2023-04-02T12:34:14;102081.09;;;8.46;51.17
53932;BME280;39844;52.496;13.482;2023-04-02T12:36:53;102082.75;;;8.44;50.83
53932;BME280;39844;52.496;13.482;2023-04-02T12:39:19;102079.38;;;8.81;51.40
53932;BME280;39844;52.496;13.482;2023-04-02T12:41:44;102089.22;;;8.89;49.24
53932;BME280;39844;52.496;13.482;2023-04-02T12:44:21;102083.38;;;9.01;49.77
53932;BME280;39844;52.496;13.482;2023-04-02T12:46:48;102083.16;;;9.28;47.75
53932;BME280;39844;52.496;13.482;2023-04-02T12:51:51;102084.59;;;9.54;48.81
53932;BME280;39844;52.496;13.482;2023-04-02T12:54:17;102099.41;;;9.52;48.68
53932;BME280;39844;52.496;13.482;2023-04-02T12:56:43;102080.66;;;9.34;47.64
53932;BME280;39844;52.496;13.482;2023-04-02T12:59:38;102088.00;;;9.13;48.10
53932;BME280;39844;52.496;13.482;2023-04-02T13:05:12;102084.16;;;9.34;50.21
53932;BME280;39844;52.496;13.482;2023-04-02T13:07:38;102087.75;;;9.78;48.14
53932;BME280;39844;52.496;13.482;2023-04-02T13:10:17;102076.84;;;10.00;44.88
53932;BME280;39844;52.496;13.482;2023-04-02T13:12:46;102086.94;;;10.23;44.95
53932;BME280;39844;52.496;13.482;2023-04-02T13:15:21;102084.25;;;10.20;45.79
53932;BME280;39844;52.496;13.482;2023-04-02T13:17:48;102090.03;;;10.03;44.50
53932;BME280;39844;52.496;13.482;2023-04-02T13:20:33;102089.59;;;9.82;45.82
53932;BME280;39844;52.496;13.482;2023-04-02T13:23:00;102096.84;;;9.95;45.19
53932;BME280;39844;52.496;13.482;2023-04-02T13:25:29;102095.84;;;10.31;45.85
53932;BME280;39844;52.496;13.482;2023-04-02T13:27:55;102089.41;;;10.60;43.83
53932;BME280;39844;52.496;13.482;2023-04-02T13:30:23;102080.50;;;10.52;44.25
53932;BME280;39844;52.496;13.482;2023-04-02T13:32:49;102093.41;;;10.40;44.04
53932;BME280;39844;52.496;13.482;2023-04-02T13:35:14;102095.38;;;10.09;44.47
53932;BME280;39844;52.496;13.482;2023-04-02T13:37:40;102093.00;;;9.78;45.23
53932;BME280;39844;52.496;13.482;2023-04-02T13:40:05;102117.03;;;9.59;46.88
53932;BME280;39844;52.496;13.482;2023-04-02T13:42:31;102111.34;;;9.38;46.21
53932;BME280;39844;52.496;13.482;2023-04-02T13:44:56;102106.78;;;9.31;48.37
53932;BME280;39844;52.496;13.482;2023-04-02T13:47:22;102104.25;;;9.73;47.10
53932;BME280;39844;52.496;13.482;2023-04-02T13:49:47;102110.69;;;10.29;47.72
53932;BME280;39844;52.496;13.482;2023-04-02T13:52:14;102117.91;;;10.40;46.31
53932;BME280;39844;52.496;13.482;2023-04-02T13:54:46;102111.38;;;10.19;46.53
53932;BME280;39844;52.496;13.482;2023-04-02T13:57:12;102112.72;;;10.01;47.18
53932;BME280;39844;52.496;13.482;2023-04-02T13:59:38;102111.09;;;10.08;46.46
53932;BME280;39844;52.496;13.482;2023-04-02T14:02:07;102115.25;;;10.39;45.76
53932;BME280;39844;52.496;13.482;2023-04-02T14:04:38;102123.34;;;10.51;43.12
53932;BME280;39844;52.496;13.482;2023-04-02T14:07:35;102117.38;;;10.13;44.44
53932;BME280;39844;52.496;13.482;2023-04-02T14:10:24;102115.22;;;9.95;45.16
53932;BME280;39844;52.496;13.482;2023-04-02T14:18:31;102119.47;;;10.77;43.82
53932;BME280;39844;52.496;13.482;2023-04-02T14:36:47;102147.00;;;10.09;44.16
53932;BME280;39844;52.496;13.482;2023-04-02T14:39:54;102147.59;;;9.96;46.31
53932;BME280;39844;52.496;13.482;2023-04-02T14:42:31;102155.78;;;9.72;46.01
53932;BME280;39844;52.496;13.482;2023-04-02T14:45:11;102147.50;;;9.54;46.64
53932;BME280;39844;52.496;13.482;2023-04-02T14:47:46;102156.06;;;9.45;46.92
53932;BME280;39844;52.496;13.482;2023-04-02T14:50:25;102145.16;;;9.66;47.32
53932;BME280;39844;52.496;13.482;2023-04-02T14:52:56;102168.16;;;9.76;46.04
53932;BME280;39844;52.496;13.482;2023-04-02T14:55:34;102162.31;;;9.52;46.17
53932;BME280;39844;52.496;13.482;2023-04-02T14:58:06;102168.81;;;9.32;47.25
53932;BME280;39844;52.496;13.482;2023-04-02T15:00:37;102175.41;;;9.16;46.63
53932;BME280;39844;52.496;13.482;2023-04-02T15:06:11;102167.31;;;8.73;47.24
53932;BME280;39844;52.496;13.482;2023-04-02T15:08:45;102169.84;;;8.70;48.57
53932;BME280;39844;52.496;13.482;2023-04-02T15:11:22;102168.41;;;8.82;48.37
53932;BME280;39844;52.496;13.482;2023-04-02T15:16:29;102185.22;;;8.90;47.81
53932;BME280;39844;52.496;13.482;2023-04-02T15:22:30;102190.13;;;8.46;49.38
53932;BME280;39844;52.496;13.482;2023-04-02T15:25:11;102194.94;;;8.32;49.41
53932;BME280;39844;52.496;13.482;2023-04-02T15:28:02;102205.16;;;8.54;49.81
53932;BME280;39844;52.496;13.482;2023-04-02T15:30:37;102214.28;;;9.00;47.20
53932;BME280;39844;52.496;13.482;2023-04-02T15:33:42;102210.97;;;9.07;46.05
53932;BME280;39844;52.496;13.482;2023-04-02T15:39:09;102217.81;;;8.39;48.18
53932;BME280;39844;52.496;13.482;2023-04-02T15:44:24;102220.31;;;8.64;48.65
53932;BME280;39844;52.496;13.482;2023-04-02T15:49:53;102226.88;;;8.81;47.09
53932;BME280;39844;52.496;13.482;2023-04-02T15:58:12;102240.84;;;8.51;49.33
53932;BME280;39844;52.496;13.482;2023-04-02T16:04:05;102243.22;;;8.73;47.78
53932;BME280;39844;52.496;13.482;2023-04-02T16:06:51;102248.53;;;9.40;46.19
53932;BME280;39844;52.496;13.482;2023-04-02T16:09:25;102253.53;;;9.65;44.07
53932;BME280;39844;52.496;13.482;2023-04-02T16:11:57;102263.38;;;9.41;44.78
53932;BME280;39844;52.496;13.482;2023-04-02T16:14:29;102265.44;;;8.87;45.01
53932;BME280;39844;52.496;13.482;2023-04-02T16:16:58;102263.25;;;8.41;45.42
53932;BME280;39844;52.496;13.482;2023-04-02T16:24:17;102276.88;;;7.76;48.95
53932;BME280;39844;52.496;13.482;2023-04-02T16:26:51;102285.06;;;7.87;48.76
53932;BME280;39844;52.496;13.482;2023-04-02T16:42:39;102320.63;;;7.56;49.32
53932;BME280;39844;52.496;13.482;2023-04-02T16:45:32;102329.44;;;7.35;50.32
53932;BME280;39844;52.496;13.482;2023-04-02T17:00:04;102338.78;;;7.03;50.66
53932;BME280;39844;52.496;13.482;2023-04-02T17:08:17;102353.75;;;6.85;51.39
53932;BME280;39844;52.496;13.482;2023-04-02T17:13:44;102357.47;;;6.68;52.19
53932;BME280;39844;52.496;13.482;2023-04-02T17:16:16;102365.16;;;6.65;53.14
53932;BME280;39844;52.496;13.482;2023-04-02T17:18:45;102370.22;;;6.60;53.09
53932;BME280;39844;52.496;13.482;2023-04-02T17:21:14;102369.75;;;6.48;52.55